Terminal Aerodrome Forecast
Issued by NWS Memphis, TN

Home | Current Version | Previous Version | Text Only | Print | Product List | Glossary On
Versions: 1 2 3 4 5 6 7 8 9 10 11 12 13 14 15 16 17
561
FTUS44 KMEG 221732
TAFJBR
TAF
KJBR 221732Z 2218/2318 26007KT P6SM -SHRA BKN025
     FM230400 32008KT 5SM BR BKN015
     FM231500 28008KT P6SM SCT030=

USA.gov is the U.S. government's official web portal to all federal, state and local government web resources and services.